sensor_id;sensor_type;location;lat;lon;timestamp;P1;durP1;ratioP1;P2;durP2;ratioP2
41219;SDS011;26951;47.338;9.196;2022-08-01T00:00:56;2.75;;;2.45;;
41219;SDS011;26951;47.338;9.196;2022-08-01T00:03:40;2.97;;;2.70;;
41219;SDS011;26951;47.338;9.196;2022-08-01T00:06:24;2.88;;;2.67;;
41219;SDS011;26951;47.338;9.196;2022-08-01T00:09:08;5.25;;;2.95;;
41219;SDS011;26951;47.338;9.196;2022-08-01T00:11:53;3.25;;;2.95;;
41219;SDS011;26951;47.338;9.196;2022-08-01T00:14:37;2.65;;;2.45;;
41219;SDS011;26951;47.338;9.196;2022-08-01T00:17:21;2.83;;;2.30;;
41219;SDS011;26951;47.338;9.196;2022-08-01T00:20:06;2.90;;;2.70;;
41219;SDS011;26951;47.338;9.196;2022-08-01T00:22:52;4.75;;;3.33;;
41219;SDS011;26951;47.338;9.196;2022-08-01T00:25:36;3.08;;;2.83;;
41219;SDS011;26951;47.338;9.196;2022-08-01T00:28:20;3.00;;;2.80;;
41219;SDS011;26951;47.338;9.196;2022-08-01T00:31:04;3.38;;;2.53;;
41219;SDS011;26951;47.338;9.196;2022-08-01T00:33:48;3.25;;;2.95;;
41219;SDS011;26951;47.338;9.196;2022-08-01T00:36:33;3.38;;;3.08;;
41219;SDS011;26951;47.338;9.196;2022-08-01T00:39:17;2.97;;;2.78;;
41219;SDS011;26951;47.338;9.196;2022-08-01T00:42:08;3.10;;;2.80;;
41219;SDS011;26951;47.338;9.196;2022-08-01T00:44:54;2.67;;;2.47;;
41219;SDS011;26951;47.338;9.196;2022-08-01T00:47:38;3.00;;;2.67;;
41219;SDS011;26951;47.338;9.196;2022-08-01T00:50:22;3.13;;;2.83;;
41219;SDS011;26951;47.338;9.196;2022-08-01T00:53:06;3.30;;;3.00;;
41219;SDS011;26951;47.338;9.196;2022-08-01T00:55:51;3.20;;;2.37;;
41219;SDS011;26951;47.338;9.196;2022-08-01T00:58:36;4.45;;;2.60;;
41219;SDS011;26951;47.338;9.196;2022-08-01T01:04:46;3.63;;;2.67;;
41219;SDS011;26951;47.338;9.196;2022-08-01T01:07:40;3.33;;;2.50;;
41219;SDS011;26951;47.338;9.196;2022-08-01T01:10:43;3.03;;;2.80;;
41219;SDS011;26951;47.338;9.196;2022-08-01T01:16:24;3.13;;;2.83;;
41219;SDS011;26951;47.338;9.196;2022-08-01T01:19:10;2.90;;;2.70;;
41219;SDS011;26951;47.338;9.196;2022-08-01T01:28:33;3.00;;;2.70;;
41219;SDS011;26951;47.338;9.196;2022-08-01T01:31:44;3.63;;;2.67;;
41219;SDS011;26951;47.338;9.196;2022-08-01T01:34:34;3.15;;;2.85;;
41219;SDS011;26951;47.338;9.196;2022-08-01T01:37:23;3.00;;;2.80;;
41219;SDS011;26951;47.338;9.196;2022-08-01T01:40:09;3.28;;;2.97;;
41219;SDS011;26951;47.338;9.196;2022-08-01T01:42:55;3.67;;;2.88;;
41219;SDS011;26951;47.338;9.196;2022-08-01T01:45:41;2.95;;;2.50;;
41219;SDS011;26951;47.338;9.196;2022-08-01T01:48:27;3.53;;;2.72;;
41219;SDS011;26951;47.338;9.196;2022-08-01T01:51:12;4.93;;;3.22;;
41219;SDS011;26951;47.338;9.196;2022-08-01T01:53:58;2.83;;;2.63;;
41219;SDS011;26951;47.338;9.196;2022-08-01T01:56:44;3.17;;;2.97;;
41219;SDS011;26951;47.338;9.196;2022-08-01T01:59:34;3.78;;;2.80;;
41219;SDS011;26951;47.338;9.196;2022-08-01T02:02:20;3.38;;;2.67;;
41219;SDS011;26951;47.338;9.196;2022-08-01T02:05:08;4.90;;;2.90;;
41219;SDS011;26951;47.338;9.196;2022-08-01T02:07:55;4.68;;;2.92;;
41219;SDS011;26951;47.338;9.196;2022-08-01T02:10:40;2.90;;;2.60;;
41219;SDS011;26951;47.338;9.196;2022-08-01T02:13:47;3.05;;;2.75;;
41219;SDS011;26951;47.338;9.196;2022-08-01T02:16:42;3.03;;;2.75;;
41219;SDS011;26951;47.338;9.196;2022-08-01T02:19:30;3.15;;;2.85;;
41219;SDS011;26951;47.338;9.196;2022-08-01T02:25:10;3.80;;;2.60;;
41219;SDS011;26951;47.338;9.196;2022-08-01T02:28:16;2.60;;;2.40;;
41219;SDS011;26951;47.338;9.196;2022-08-01T02:31:12;2.65;;;2.45;;
41219;SDS011;26951;47.338;9.196;2022-08-01T02:34:02;3.13;;;2.83;;
41219;SDS011;26951;47.338;9.196;2022-08-01T02:36:49;2.80;;;2.60;;
41219;SDS011;26951;47.338;9.196;2022-08-01T02:39:36;4.07;;;2.88;;
41219;SDS011;26951;47.338;9.196;2022-08-01T02:42:22;3.00;;;2.78;;
41219;SDS011;26951;47.338;9.196;2022-08-01T02:45:11;2.90;;;2.60;;
41219;SDS011;26951;47.338;9.196;2022-08-01T02:48:08;3.20;;;2.83;;
41219;SDS011;26951;47.338;9.196;2022-08-01T02:50:55;5.25;;;2.70;;
41219;SDS011;26951;47.338;9.196;2022-08-01T02:53:42;4.18;;;2.70;;
41219;SDS011;26951;47.338;9.196;2022-08-01T02:56:28;3.35;;;3.05;;
41219;SDS011;26951;47.338;9.196;2022-08-01T02:59:18;7.40;;;3.42;;
41219;SDS011;26951;47.338;9.196;2022-08-01T03:02:08;3.20;;;2.60;;
41219;SDS011;26951;47.338;9.196;2022-08-01T03:05:01;4.30;;;2.70;;
41219;SDS011;26951;47.338;9.196;2022-08-01T03:07:47;2.92;;;2.63;;
41219;SDS011;26951;47.338;9.196;2022-08-01T03:10:32;3.58;;;3.15;;
41219;SDS011;26951;47.338;9.196;2022-08-01T03:13:18;3.72;;;2.50;;
41219;SDS011;26951;47.338;9.196;2022-08-01T03:16:04;4.10;;;2.50;;
41219;SDS011;26951;47.338;9.196;2022-08-01T03:18:49;2.55;;;2.35;;
41219;SDS011;26951;47.338;9.196;2022-08-01T03:21:36;2.72;;;2.10;;
41219;SDS011;26951;47.338;9.196;2022-08-01T03:24:23;5.70;;;2.60;;
41219;SDS011;26951;47.338;9.196;2022-08-01T03:27:09;3.00;;;2.80;;
41219;SDS011;26951;47.338;9.196;2022-08-01T03:29:55;2.60;;;2.40;;
41219;SDS011;26951;47.338;9.196;2022-08-01T03:32:42;3.53;;;3.10;;
41219;SDS011;26951;47.338;9.196;2022-08-01T03:35:26;2.85;;;2.65;;
41219;SDS011;26951;47.338;9.196;2022-08-01T03:38:22;2.63;;;2.42;;
41219;SDS011;26951;47.338;9.196;2022-08-01T03:41:09;3.00;;;2.70;;
41219;SDS011;26951;47.338;9.196;2022-08-01T03:44:03;3.08;;;2.65;;
41219;SDS011;26951;47.338;9.196;2022-08-01T03:46:56;4.72;;;2.80;;
41219;SDS011;26951;47.338;9.196;2022-08-01T03:49:44;4.28;;;2.92;;
41219;SDS011;26951;47.338;9.196;2022-08-01T03:52:31;3.22;;;2.70;;
41219;SDS011;26951;47.338;9.196;2022-08-01T03:55:16;3.90;;;3.30;;
41219;SDS011;26951;47.338;9.196;2022-08-01T03:58:02;2.97;;;2.70;;
41219;SDS011;26951;47.338;9.196;2022-08-01T04:00:47;3.30;;;2.92;;
41219;SDS011;26951;47.338;9.196;2022-08-01T04:03:32;4.65;;;3.05;;
41219;SDS011;26951;47.338;9.196;2022-08-01T04:06:17;3.08;;;2.78;;
41219;SDS011;26951;47.338;9.196;2022-08-01T04:09:02;3.10;;;2.42;;
41219;SDS011;26951;47.338;9.196;2022-08-01T04:11:46;3.05;;;2.80;;
41219;SDS011;26951;47.338;9.196;2022-08-01T04:14:30;3.70;;;3.40;;
41219;SDS011;26951;47.338;9.196;2022-08-01T04:17:15;3.72;;;2.80;;
41219;SDS011;26951;47.338;9.196;2022-08-01T04:19:59;3.85;;;3.45;;
41219;SDS011;26951;47.338;9.196;2022-08-01T04:22:43;5.45;;;2.80;;
41219;SDS011;26951;47.338;9.196;2022-08-01T04:25:29;3.45;;;3.15;;
41219;SDS011;26951;47.338;9.196;2022-08-01T04:28:17;3.33;;;3.03;;
41219;SDS011;26951;47.338;9.196;2022-08-01T04:31:04;6.15;;;3.97;;
41219;SDS011;26951;47.338;9.196;2022-08-01T04:33:53;5.53;;;3.78;;
41219;SDS011;26951;47.338;9.196;2022-08-01T04:36:39;5.20;;;3.45;;
41219;SDS011;26951;47.338;9.196;2022-08-01T04:39:25;5.15;;;3.55;;
41219;SDS011;26951;47.338;9.196;2022-08-01T04:42:12;5.55;;;3.65;;
41219;SDS011;26951;47.338;9.196;2022-08-01T04:44:59;4.07;;;3.58;;
41219;SDS011;26951;47.338;9.196;2022-08-01T04:47:43;4.18;;;2.85;;
41219;SDS011;26951;47.338;9.196;2022-08-01T04:50:31;5.65;;;3.70;;
41219;SDS011;26951;47.338;9.196;2022-08-01T04:53:16;5.65;;;3.65;;
41219;SDS011;26951;47.338;9.196;2022-08-01T04:56:03;4.60;;;3.90;;
41219;SDS011;26951;47.338;9.196;2022-08-01T04:58:47;6.88;;;3.65;;
41219;SDS011;26951;47.338;9.196;2022-08-01T05:01:31;3.88;;;3.42;;
41219;SDS011;26951;47.338;9.196;2022-08-01T05:04:15;3.97;;;3.35;;
41219;SDS011;26951;47.338;9.196;2022-08-01T05:06:59;4.60;;;3.40;;
41219;SDS011;26951;47.338;9.196;2022-08-01T05:09:43;4.32;;;3.22;;
41219;SDS011;26951;47.338;9.196;2022-08-01T05:12:31;3.90;;;3.53;;
41219;SDS011;26951;47.338;9.196;2022-08-01T05:15:15;4.70;;;3.60;;
41219;SDS011;26951;47.338;9.196;2022-08-01T05:18:00;10.63;;;5.03;;
41219;SDS011;26951;47.338;9.196;2022-08-01T05:20:44;5.15;;;3.20;;
41219;SDS011;26951;47.338;9.196;2022-08-01T05:23:28;3.30;;;3.00;;
41219;SDS011;26951;47.338;9.196;2022-08-01T05:26:12;3.42;;;3.13;;
41219;SDS011;26951;47.338;9.196;2022-08-01T05:28:57;4.00;;;3.03;;
41219;SDS011;26951;47.338;9.196;2022-08-01T05:31:41;3.67;;;2.97;;
41219;SDS011;26951;47.338;9.196;2022-08-01T05:34:25;3.50;;;3.20;;
41219;SDS011;26951;47.338;9.196;2022-08-01T05:37:10;2.97;;;2.78;;
41219;SDS011;26951;47.338;9.196;2022-08-01T05:39:54;4.07;;;2.90;;
41219;SDS011;26951;47.338;9.196;2022-08-01T05:42:38;3.33;;;2.78;;
41219;SDS011;26951;47.338;9.196;2022-08-01T05:45:22;4.57;;;3.38;;
41219;SDS011;26951;47.338;9.196;2022-08-01T05:48:07;3.88;;;3.00;;
41219;SDS011;26951;47.338;9.196;2022-08-01T05:50:51;2.97;;;2.70;;
41219;SDS011;26951;47.338;9.196;2022-08-01T05:53:35;4.13;;;2.90;;
41219;SDS011;26951;47.338;9.196;2022-08-01T05:56:19;3.78;;;3.15;;
41219;SDS011;26951;47.338;9.196;2022-08-01T05:59:05;3.15;;;2.90;;
41219;SDS011;26951;47.338;9.196;2022-08-01T06:01:49;4.47;;;4.07;;
41219;SDS011;26951;47.338;9.196;2022-08-01T06:04:33;3.95;;;3.17;;
41219;SDS011;26951;47.338;9.196;2022-08-01T06:07:17;3.55;;;3.22;;
41219;SDS011;26951;47.338;9.196;2022-08-01T06:10:01;5.70;;;3.55;;
41219;SDS011;26951;47.338;9.196;2022-08-01T06:12:46;3.75;;;3.42;;
41219;SDS011;26951;47.338;9.196;2022-08-01T06:15:31;3.40;;;3.10;;
41219;SDS011;26951;47.338;9.196;2022-08-01T06:21:00;3.30;;;3.00;;
41219;SDS011;26951;47.338;9.196;2022-08-01T06:23:44;3.05;;;2.83;;
41219;SDS011;26951;47.338;9.196;2022-08-01T06:26:28;5.38;;;2.75;;
41219;SDS011;26951;47.338;9.196;2022-08-01T06:29:12;2.83;;;2.60;;
41219;SDS011;26951;47.338;9.196;2022-08-01T06:31:56;3.40;;;3.10;;
41219;SDS011;26951;47.338;9.196;2022-08-01T06:34:40;4.00;;;2.75;;
41219;SDS011;26951;47.338;9.196;2022-08-01T06:37:28;3.25;;;2.67;;
41219;SDS011;26951;47.338;9.196;2022-08-01T06:40:13;3.28;;;2.97;;
41219;SDS011;26951;47.338;9.196;2022-08-01T06:42:57;3.08;;;2.67;;
41219;SDS011;26951;47.338;9.196;2022-08-01T06:45:41;4.55;;;2.70;;
41219;SDS011;26951;47.338;9.196;2022-08-01T06:48:26;2.92;;;2.63;;
41219;SDS011;26951;47.338;9.196;2022-08-01T06:51:10;3.53;;;2.85;;
41219;SDS011;26951;47.338;9.196;2022-08-01T06:53:57;2.70;;;2.47;;
41219;SDS011;26951;47.338;9.196;2022-08-01T06:56:41;3.97;;;3.08;;
41219;SDS011;26951;47.338;9.196;2022-08-01T06:59:26;3.15;;;2.83;;
41219;SDS011;26951;47.338;9.196;2022-08-01T07:02:10;3.08;;;2.78;;
41219;SDS011;26951;47.338;9.196;2022-08-01T07:04:54;3.03;;;2.72;;
41219;SDS011;26951;47.338;9.196;2022-08-01T07:07:38;3.53;;;2.83;;
41219;SDS011;26951;47.338;9.196;2022-08-01T07:10:23;2.70;;;2.50;;
41219;SDS011;26951;47.338;9.196;2022-08-01T07:13:07;2.80;;;2.55;;
41219;SDS011;26951;47.338;9.196;2022-08-01T07:15:51;2.53;;;2.33;;
41219;SDS011;26951;47.338;9.196;2022-08-01T07:18:36;4.07;;;2.47;;
41219;SDS011;26951;47.338;9.196;2022-08-01T07:21:20;2.53;;;2.33;;
41219;SDS011;26951;47.338;9.196;2022-08-01T07:24:05;4.45;;;2.60;;
41219;SDS011;26951;47.338;9.196;2022-08-01T07:26:50;2.78;;;2.58;;
41219;SDS011;26951;47.338;9.196;2022-08-01T07:29:34;5.73;;;2.70;;
41219;SDS011;26951;47.338;9.196;2022-08-01T07:32:18;3.67;;;2.60;;
41219;SDS011;26951;47.338;9.196;2022-08-01T07:35:02;4.70;;;2.50;;
41219;SDS011;26951;47.338;9.196;2022-08-01T07:40:31;2.60;;;2.40;;
41219;SDS011;26951;47.338;9.196;2022-08-01T07:43:15;3.78;;;2.25;;
41219;SDS011;26951;47.338;9.196;2022-08-01T07:45:59;2.30;;;1.93;;
41219;SDS011;26951;47.338;9.196;2022-08-01T07:48:44;5.00;;;2.25;;
41219;SDS011;26951;47.338;9.196;2022-08-01T07:51:28;2.60;;;2.40;;
41219;SDS011;26951;47.338;9.196;2022-08-01T07:54:12;2.95;;;2.70;;
41219;SDS011;26951;47.338;9.196;2022-08-01T07:56:56;2.67;;;2.47;;
41219;SDS011;26951;47.338;9.196;2022-08-01T07:59:40;2.67;;;2.42;;
41219;SDS011;26951;47.338;9.196;2022-08-01T08:02:24;4.30;;;2.47;;
41219;SDS011;26951;47.338;9.196;2022-08-01T08:05:08;3.33;;;2.80;;
41219;SDS011;26951;47.338;9.196;2022-08-01T08:07:52;3.85;;;2.78;;
41219;SDS011;26951;47.338;9.196;2022-08-01T08:10:37;3.15;;;2.60;;
41219;SDS011;26951;47.338;9.196;2022-08-01T08:13:21;2.80;;;2.20;;
41219;SDS011;26951;47.338;9.196;2022-08-01T08:16:05;3.25;;;2.30;;
41219;SDS011;26951;47.338;9.196;2022-08-01T08:18:49;4.05;;;2.45;;
41219;SDS011;26951;47.338;9.196;2022-08-01T08:21:33;3.58;;;2.40;;
41219;SDS011;26951;47.338;9.196;2022-08-01T08:24:17;2.67;;;2.47;;
41219;SDS011;26951;47.338;9.196;2022-08-01T08:27:04;2.63;;;2.20;;
41219;SDS011;26951;47.338;9.196;2022-08-01T08:29:48;2.53;;;2.33;;
41219;SDS011;26951;47.338;9.196;2022-08-01T08:32:33;2.63;;;2.40;;
41219;SDS011;26951;47.338;9.196;2022-08-01T08:35:18;2.63;;;2.42;;
41219;SDS011;26951;47.338;9.196;2022-08-01T08:38:02;2.55;;;1.92;;
41219;SDS011;26951;47.338;9.196;2022-08-01T08:40:46;3.50;;;2.58;;
41219;SDS011;26951;47.338;9.196;2022-08-01T08:43:31;2.95;;;2.30;;
41219;SDS011;26951;47.338;9.196;2022-08-01T08:46:15;2.72;;;2.53;;
41219;SDS011;26951;47.338;9.196;2022-08-01T08:49:01;2.50;;;2.30;;
41219;SDS011;26951;47.338;9.196;2022-08-01T08:51:48;3.28;;;2.40;;
41219;SDS011;26951;47.338;9.196;2022-08-01T08:54:33;2.85;;;2.45;;
41219;SDS011;26951;47.338;9.196;2022-08-01T08:57:20;2.60;;;2.25;;
41219;SDS011;26951;47.338;9.196;2022-08-01T09:00:05;2.35;;;2.15;;
41219;SDS011;26951;47.338;9.196;2022-08-01T09:05:35;2.58;;;2.38;;
41219;SDS011;26951;47.338;9.196;2022-08-01T09:08:20;2.85;;;2.10;;
41219;SDS011;26951;47.338;9.196;2022-08-01T09:11:04;2.40;;;2.00;;
41219;SDS011;26951;47.338;9.196;2022-08-01T09:17:02;3.78;;;2.35;;
41219;SDS011;26951;47.338;9.196;2022-08-01T09:19:55;2.60;;;2.20;;
41219;SDS011;26951;47.338;9.196;2022-08-01T09:22:39;3.38;;;2.33;;
41219;SDS011;26951;47.338;9.196;2022-08-01T09:25:23;3.05;;;2.75;;
41219;SDS011;26951;47.338;9.196;2022-08-01T09:28:08;2.10;;;1.98;;
41219;SDS011;26951;47.338;9.196;2022-08-01T09:30:52;2.58;;;2.10;;
41219;SDS011;26951;47.338;9.196;2022-08-01T09:33:49;3.22;;;2.72;;
41219;SDS011;26951;47.338;9.196;2022-08-01T09:36:48;3.85;;;2.30;;
41219;SDS011;26951;47.338;9.196;2022-08-01T09:39:39;2.75;;;1.90;;
41219;SDS011;26951;47.338;9.196;2022-08-01T09:42:26;2.47;;;2.08;;
41219;SDS011;26951;47.338;9.196;2022-08-01T09:45:30;2.50;;;2.30;;
41219;SDS011;26951;47.338;9.196;2022-08-01T09:48:16;3.60;;;2.00;;
41219;SDS011;26951;47.338;9.196;2022-08-01T09:51:02;2.67;;;2.03;;
41219;SDS011;26951;47.338;9.196;2022-08-01T09:56:36;2.22;;;1.77;;
41219;SDS011;26951;47.338;9.196;2022-08-01T09:59:20;2.88;;;1.83;;
41219;SDS011;26951;47.338;9.196;2022-08-01T10:02:05;2.35;;;2.10;;
41219;SDS011;26951;47.338;9.196;2022-08-01T10:04:50;2.72;;;2.08;;
41219;SDS011;26951;47.338;9.196;2022-08-01T10:07:36;2.35;;;1.80;;
41219;SDS011;26951;47.338;9.196;2022-08-01T10:10:39;2.30;;;2.10;;
41219;SDS011;26951;47.338;9.196;2022-08-01T10:13:23;2.40;;;1.75;;
41219;SDS011;26951;47.338;9.196;2022-08-01T10:16:07;3.53;;;2.30;;
41219;SDS011;26951;47.338;9.196;2022-08-01T10:18:53;2.08;;;1.88;;
41219;SDS011;26951;47.338;9.196;2022-08-01T10:24:23;2.75;;;2.00;;
41219;SDS011;26951;47.338;9.196;2022-08-01T10:27:09;2.65;;;2.05;;
41219;SDS011;26951;47.338;9.196;2022-08-01T10:29:57;2.80;;;2.55;;
41219;SDS011;26951;47.338;9.196;2022-08-01T10:32:49;2.75;;;2.10;;
41219;SDS011;26951;47.338;9.196;2022-08-01T10:35:37;2.72;;;2.20;;
41219;SDS011;26951;47.338;9.196;2022-08-01T10:38:22;2.58;;;2.38;;
41219;SDS011;26951;47.338;9.196;2022-08-01T10:41:09;2.58;;;2.38;;
41219;SDS011;26951;47.338;9.196;2022-08-01T10:44:00;2.50;;;2.30;;
41219;SDS011;26951;47.338;9.196;2022-08-01T10:46:46;2.50;;;2.30;;
41219;SDS011;26951;47.338;9.196;2022-08-01T10:49:34;2.30;;;2.10;;
41219;SDS011;26951;47.338;9.196;2022-08-01T10:52:24;1.95;;;1.85;;
41219;SDS011;26951;47.338;9.196;2022-08-01T10:55:09;2.20;;;2.00;;
41219;SDS011;26951;47.338;9.196;2022-08-01T10:57:53;4.43;;;2.20;;
41219;SDS011;26951;47.338;9.196;2022-08-01T11:00:37;2.25;;;2.03;;
41219;SDS011;26951;47.338;9.196;2022-08-01T11:03:31;3.17;;;2.17;;
41219;SDS011;26951;47.338;9.196;2022-08-01T11:06:20;2.45;;;2.00;;
41219;SDS011;26951;47.338;9.196;2022-08-01T11:12:12;2.72;;;2.47;;
41219;SDS011;26951;47.338;9.196;2022-08-01T11:17:45;2.58;;;2.38;;
41219;SDS011;26951;47.338;9.196;2022-08-01T11:20:35;2.47;;;2.28;;
41219;SDS011;26951;47.338;9.196;2022-08-01T11:32:06;2.20;;;2.00;;
41219;SDS011;26951;47.338;9.196;2022-08-01T11:35:07;1.95;;;1.85;;
41219;SDS011;26951;47.338;9.196;2022-08-01T11:37:51;2.63;;;2.03;;
41219;SDS011;26951;47.338;9.196;2022-08-01T11:40:38;2.55;;;2.20;;
41219;SDS011;26951;47.338;9.196;2022-08-01T11:43:23;2.58;;;2.38;;
41219;SDS011;26951;47.338;9.196;2022-08-01T11:46:07;2.97;;;2.03;;
41219;SDS011;26951;47.338;9.196;2022-08-01T11:49:21;1.80;;;1.70;;
41219;SDS011;26951;47.338;9.196;2022-08-01T11:55:13;2.00;;;1.80;;
41219;SDS011;26951;47.338;9.196;2022-08-01T11:57:59;2.20;;;2.00;;
41219;SDS011;26951;47.338;9.196;2022-08-01T12:00:51;2.33;;;2.13;;
41219;SDS011;26951;47.338;9.196;2022-08-01T12:03:36;2.53;;;1.83;;
41219;SDS011;26951;47.338;9.196;2022-08-01T12:06:27;3.47;;;1.85;;
41219;SDS011;26951;47.338;9.196;2022-08-01T12:09:19;2.22;;;2.03;;
41219;SDS011;26951;47.338;9.196;2022-08-01T12:12:04;2.08;;;1.90;;
41219;SDS011;26951;47.338;9.196;2022-08-01T12:14:56;2.10;;;1.83;;
41219;SDS011;26951;47.338;9.196;2022-08-01T12:17:42;1.90;;;1.80;;
41219;SDS011;26951;47.338;9.196;2022-08-01T12:20:34;2.17;;;1.98;;
41219;SDS011;26951;47.338;9.196;2022-08-01T12:23:19;2.13;;;1.92;;
41219;SDS011;26951;47.338;9.196;2022-08-01T12:26:04;1.75;;;1.65;;
41219;SDS011;26951;47.338;9.196;2022-08-01T12:28:49;3.25;;;2.80;;
41219;SDS011;26951;47.338;9.196;2022-08-01T12:31:34;4.00;;;2.85;;
41219;SDS011;26951;47.338;9.196;2022-08-01T12:34:25;2.95;;;1.70;;
41219;SDS011;26951;47.338;9.196;2022-08-01T12:37:13;2.85;;;2.15;;
41219;SDS011;26951;47.338;9.196;2022-08-01T12:39:57;2.37;;;1.80;;
41219;SDS011;26951;47.338;9.196;2022-08-01T12:42:44;2.22;;;2.03;;
41219;SDS011;26951;47.338;9.196;2022-08-01T12:45:33;2.28;;;2.05;;
41219;SDS011;26951;47.338;9.196;2022-08-01T12:48:19;3.53;;;1.98;;
41219;SDS011;26951;47.338;9.196;2022-08-01T12:51:04;4.53;;;2.03;;
41219;SDS011;26951;47.338;9.196;2022-08-01T12:53:48;3.83;;;2.05;;
41219;SDS011;26951;47.338;9.196;2022-08-01T12:56:33;2.25;;;2.00;;
41219;SDS011;26951;47.338;9.196;2022-08-01T12:59:21;2.27;;;2.07;;
41219;SDS011;26951;47.338;9.196;2022-08-01T13:02:08;2.20;;;2.00;;
41219;SDS011;26951;47.338;9.196;2022-08-01T13:04:52;2.33;;;2.13;;
41219;SDS011;26951;47.338;9.196;2022-08-01T13:07:41;2.30;;;2.10;;
41219;SDS011;26951;47.338;9.196;2022-08-01T13:10:31;2.50;;;1.77;;
41219;SDS011;26951;47.338;9.196;2022-08-01T13:13:16;2.00;;;1.80;;
41219;SDS011;26951;47.338;9.196;2022-08-01T13:16:03;1.92;;;1.73;;
41219;SDS011;26951;47.338;9.196;2022-08-01T13:18:49;1.83;;;1.60;;
41219;SDS011;26951;47.338;9.196;2022-08-01T13:21:35;1.88;;;1.77;;
41219;SDS011;26951;47.338;9.196;2022-08-01T13:24:28;1.85;;;1.67;;
41219;SDS011;26951;47.338;9.196;2022-08-01T13:27:20;2.45;;;2.20;;
41219;SDS011;26951;47.338;9.196;2022-08-01T13:30:25;1.95;;;1.75;;
41219;SDS011;26951;47.338;9.196;2022-08-01T13:33:09;2.08;;;1.70;;
41219;SDS011;26951;47.338;9.196;2022-08-01T13:35:54;1.80;;;1.70;;
41219;SDS011;26951;47.338;9.196;2022-08-01T13:38:40;1.80;;;1.70;;
41219;SDS011;26951;47.338;9.196;2022-08-01T13:41:44;1.75;;;1.60;;
41219;SDS011;26951;47.338;9.196;2022-08-01T13:44:29;2.30;;;2.10;;
41219;SDS011;26951;47.338;9.196;2022-08-01T13:47:13;3.78;;;1.90;;
41219;SDS011;26951;47.338;9.196;2022-08-01T13:50:00;2.03;;;1.58;;
41219;SDS011;26951;47.338;9.196;2022-08-01T13:52:45;2.00;;;1.90;;
41219;SDS011;26951;47.338;9.196;2022-08-01T13:55:30;2.00;;;1.57;;
41219;SDS011;26951;47.338;9.196;2022-08-01T13:58:14;1.75;;;1.60;;
41219;SDS011;26951;47.338;9.196;2022-08-01T14:00:58;7.10;;;1.88;;
41219;SDS011;26951;47.338;9.196;2022-08-01T14:03:43;2.00;;;1.80;;
41219;SDS011;26951;47.338;9.196;2022-08-01T14:06:27;2.97;;;2.27;;
41219;SDS011;26951;47.338;9.196;2022-08-01T14:09:11;2.75;;;1.92;;
41219;SDS011;26951;47.338;9.196;2022-08-01T14:14:40;1.73;;;1.63;;
41219;SDS011;26951;47.338;9.196;2022-08-01T14:17:24;1.40;;;1.30;;
41219;SDS011;26951;47.338;9.196;2022-08-01T14:20:09;2.03;;;1.67;;
41219;SDS011;26951;47.338;9.196;2022-08-01T14:22:54;1.70;;;1.60;;
41219;SDS011;26951;47.338;9.196;2022-08-01T14:25:39;2.17;;;1.90;;
41219;SDS011;26951;47.338;9.196;2022-08-01T14:28:24;1.58;;;1.48;;
41219;SDS011;26951;47.338;9.196;2022-08-01T14:31:10;2.85;;;2.20;;
41219;SDS011;26951;47.338;9.196;2022-08-01T14:33:55;1.73;;;1.63;;
41219;SDS011;26951;47.338;9.196;2022-08-01T14:36:39;1.83;;;1.40;;
41219;SDS011;26951;47.338;9.196;2022-08-01T14:39:23;1.60;;;1.50;;
41219;SDS011;26951;47.338;9.196;2022-08-01T14:42:07;1.50;;;1.40;;
41219;SDS011;26951;47.338;9.196;2022-08-01T14:44:51;1.75;;;1.60;;
41219;SDS011;26951;47.338;9.196;2022-08-01T14:47:39;1.60;;;1.40;;
41219;SDS011;26951;47.338;9.196;2022-08-01T14:50:24;2.72;;;1.70;;
41219;SDS011;26951;47.338;9.196;2022-08-01T14:53:10;2.53;;;1.40;;
41219;SDS011;26951;47.338;9.196;2022-08-01T14:55:54;1.80;;;1.70;;
41219;SDS011;26951;47.338;9.196;2022-08-01T14:58:39;2.03;;;1.83;;
41219;SDS011;26951;47.338;9.196;2022-08-01T15:01:23;2.83;;;1.67;;
41219;SDS011;26951;47.338;9.196;2022-08-01T15:04:07;2.22;;;1.70;;
41219;SDS011;26951;47.338;9.196;2022-08-01T15:06:51;1.63;;;1.30;;
41219;SDS011;26951;47.338;9.196;2022-08-01T15:09:35;2.08;;;1.90;;
41219;SDS011;26951;47.338;9.196;2022-08-01T15:12:19;3.92;;;1.80;;
41219;SDS011;26951;47.338;9.196;2022-08-01T15:17:48;1.67;;;1.58;;
41219;SDS011;26951;47.338;9.196;2022-08-01T15:20:32;1.70;;;1.60;;
41219;SDS011;26951;47.338;9.196;2022-08-01T15:23:17;1.60;;;1.50;;
41219;SDS011;26951;47.338;9.196;2022-08-01T15:26:01;1.88;;;1.38;;
41219;SDS011;26951;47.338;9.196;2022-08-01T15:28:45;2.20;;;1.27;;
41219;SDS011;26951;47.338;9.196;2022-08-01T15:31:29;1.30;;;1.20;;
41219;SDS011;26951;47.338;9.196;2022-08-01T15:34:14;1.38;;;1.08;;
41219;SDS011;26951;47.338;9.196;2022-08-01T15:36:58;1.00;;;1.00;;
41219;SDS011;26951;47.338;9.196;2022-08-01T15:39:42;1.13;;;1.00;;
41219;SDS011;26951;47.338;9.196;2022-08-01T15:42:26;1.45;;;1.35;;
41219;SDS011;26951;47.338;9.196;2022-08-01T15:45:10;1.20;;;1.10;;
41219;SDS011;26951;47.338;9.196;2022-08-01T15:47:59;1.20;;;1.10;;
41219;SDS011;26951;47.338;9.196;2022-08-01T15:50:44;1.30;;;1.20;;
41219;SDS011;26951;47.338;9.196;2022-08-01T15:53:28;1.75;;;1.20;;
41219;SDS011;26951;47.338;9.196;2022-08-01T15:56:12;2.20;;;1.70;;
41219;SDS011;26951;47.338;9.196;2022-08-01T15:58:57;2.17;;;1.85;;
41219;SDS011;26951;47.338;9.196;2022-08-01T16:01:42;1.20;;;1.10;;
41219;SDS011;26951;47.338;9.196;2022-08-01T16:04:26;0.93;;;0.93;;
41219;SDS011;26951;47.338;9.196;2022-08-01T16:07:10;1.23;;;1.13;;
41219;SDS011;26951;47.338;9.196;2022-08-01T16:09:55;1.52;;;1.10;;
41219;SDS011;26951;47.338;9.196;2022-08-01T16:12:39;1.17;;;1.08;;
41219;SDS011;26951;47.338;9.196;2022-08-01T16:15:23;1.40;;;1.30;;
41219;SDS011;26951;47.338;9.196;2022-08-01T16:18:09;1.30;;;1.20;;
41219;SDS011;26951;47.338;9.196;2022-08-01T16:20:58;1.08;;;1.00;;
41219;SDS011;26951;47.338;9.196;2022-08-01T16:23:43;1.33;;;1.23;;
41219;SDS011;26951;47.338;9.196;2022-08-01T16:26:28;1.50;;;1.40;;
41219;SDS011;26951;47.338;9.196;2022-08-01T16:29:12;1.50;;;1.40;;
41219;SDS011;26951;47.338;9.196;2022-08-01T16:31:56;1.38;;;1.27;;
41219;SDS011;26951;47.338;9.196;2022-08-01T16:34:41;1.50;;;1.40;;
41219;SDS011;26951;47.338;9.196;2022-08-01T16:37:25;2.70;;;1.50;;
41219;SDS011;26951;47.338;9.196;2022-08-01T16:40:09;2.05;;;1.33;;
41219;SDS011;26951;47.338;9.196;2022-08-01T16:42:53;2.72;;;1.40;;
41219;SDS011;26951;47.338;9.196;2022-08-01T16:45:37;1.42;;;1.33;;
41219;SDS011;26951;47.338;9.196;2022-08-01T16:48:21;1.75;;;1.20;;
41219;SDS011;26951;47.338;9.196;2022-08-01T16:51:06;2.08;;;1.88;;
41219;SDS011;26951;47.338;9.196;2022-08-01T16:53:50;3.72;;;2.10;;
41219;SDS011;26951;47.338;9.196;2022-08-01T16:56:34;3.10;;;2.80;;
41219;SDS011;26951;47.338;9.196;2022-08-01T16:59:18;3.60;;;2.90;;
41219;SDS011;26951;47.338;9.196;2022-08-01T17:02:03;2.90;;;2.30;;
41219;SDS011;26951;47.338;9.196;2022-08-01T17:04:47;3.03;;;2.05;;
41219;SDS011;26951;47.338;9.196;2022-08-01T17:07:31;1.88;;;1.73;;
41219;SDS011;26951;47.338;9.196;2022-08-01T17:10:15;2.25;;;2.00;;
41219;SDS011;26951;47.338;9.196;2022-08-01T17:13:00;1.88;;;1.67;;
41219;SDS011;26951;47.338;9.196;2022-08-01T17:15:45;2.92;;;1.70;;
41219;SDS011;26951;47.338;9.196;2022-08-01T17:18:30;3.38;;;1.85;;
41219;SDS011;26951;47.338;9.196;2022-08-01T17:21:15;2.55;;;2.00;;
41219;SDS011;26951;47.338;9.196;2022-08-01T17:23:59;2.65;;;2.00;;
41219;SDS011;26951;47.338;9.196;2022-08-01T17:26:43;2.28;;;1.80;;
41219;SDS011;26951;47.338;9.196;2022-08-01T17:29:27;2.33;;;1.80;;
41219;SDS011;26951;47.338;9.196;2022-08-01T17:32:12;1.70;;;1.60;;
41219;SDS011;26951;47.338;9.196;2022-08-01T17:34:56;2.00;;;1.80;;
41219;SDS011;26951;47.338;9.196;2022-08-01T17:37:40;2.00;;;1.80;;